sensor_id;sensor_type;location;lat;lon;timestamp;pressure;altitude;pressure_sealevel;temperature;humidity
10948;BME280;5526;42.070;24.752;2022-10-16T00:01:17;99663.03;;;12.71;77.82
10948;BME280;5526;42.070;24.752;2022-10-16T00:03:46;99568.03;;;12.18;78.19
10948;BME280;5526;42.070;24.752;2022-10-16T00:06:17;99641.78;;;12.56;78.89
10948;BME280;5526;42.070;24.752;2022-10-16T00:08:45;99570.56;;;12.08;78.78
10948;BME280;5526;42.070;24.752;2022-10-16T00:11:19;99611.41;;;12.27;79.44
10948;BME280;5526;42.070;24.752;2022-10-16T00:13:48;99570.25;;;12.00;79.35
10948;BME280;5526;42.070;24.752;2022-10-16T00:16:17;99610.50;;;12.17;79.77
10948;BME280;5526;42.070;24.752;2022-10-16T00:18:45;99570.81;;;11.80;80.40
10948;BME280;5526;42.070;24.752;2022-10-16T00:21:15;99602.78;;;11.84;81.83
10948;BME280;5526;42.070;24.752;2022-10-16T00:23:44;99590.63;;;11.61;82.60
10948;BME280;5526;42.070;24.752;2022-10-16T00:26:14;99671.34;;;12.05;82.79
10948;BME280;5526;42.070;24.752;2022-10-16T00:28:42;99605.94;;;11.64;82.60
10948;BME280;5526;42.070;24.752;2022-10-16T00:31:12;99615.97;;;11.62;83.16
10948;BME280;5526;42.070;24.752;2022-10-16T00:33:41;99648.28;;;11.96;82.98
10948;BME280;5526;42.070;24.752;2022-10-16T00:36:11;99581.47;;;11.47;83.00
10948;BME280;5526;42.070;24.752;2022-10-16T00:38:41;99639.38;;;11.80;82.90
10948;BME280;5526;42.070;24.752;2022-10-16T00:41:11;99609.69;;;11.68;83.07
10948;BME280;5526;42.070;24.752;2022-10-16T00:43:41;99676.06;;;12.03;83.25
10948;BME280;5526;42.070;24.752;2022-10-16T00:46:15;99595.41;;;11.48;82.74
10948;BME280;5526;42.070;24.752;2022-10-16T00:48:46;99627.72;;;11.60;83.28
10948;BME280;5526;42.070;24.752;2022-10-16T00:51:17;99647.22;;;11.75;83.46
10948;BME280;5526;42.070;24.752;2022-10-16T00:53:48;99588.97;;;11.39;82.86
10948;BME280;5526;42.070;24.752;2022-10-16T00:56:16;99661.03;;;11.82;83.06
10948;BME280;5526;42.070;24.752;2022-10-16T00:58:44;99668.63;;;11.79;83.15
10948;BME280;5526;42.070;24.752;2022-10-16T01:01:12;99624.25;;;11.54;83.01
10948;BME280;5526;42.070;24.752;2022-10-16T01:03:39;99641.19;;;11.58;82.97
10948;BME280;5526;42.070;24.752;2022-10-16T01:06:16;99630.25;;;11.50;83.55
10948;BME280;5526;42.070;24.752;2022-10-16T01:08:55;99671.38;;;11.67;83.79
10948;BME280;5526;42.070;24.752;2022-10-16T01:11:32;99697.38;;;11.80;83.85
10948;BME280;5526;42.070;24.752;2022-10-16T01:14:06;99618.38;;;11.31;83.67
10948;BME280;5526;42.070;24.752;2022-10-16T01:16:40;99686.16;;;11.68;83.44
10948;BME280;5526;42.070;24.752;2022-10-16T01:19:15;99705.03;;;11.60;84.49
10948;BME280;5526;42.070;24.752;2022-10-16T01:21:47;99631.34;;;11.16;84.36
10948;BME280;5526;42.070;24.752;2022-10-16T01:24:26;99630.00;;;11.13;84.55
10948;BME280;5526;42.070;24.752;2022-10-16T01:27:20;99638.59;;;11.09;85.10
10948;BME280;5526;42.070;24.752;2022-10-16T01:29:52;99624.00;;;11.01;85.07
10948;BME280;5526;42.070;24.752;2022-10-16T01:32:28;99651.78;;;11.25;84.65
10948;BME280;5526;42.070;24.752;2022-10-16T01:35:02;99612.06;;;10.94;84.58
10948;BME280;5526;42.070;24.752;2022-10-16T01:37:35;99632.78;;;10.90;85.47
10948;BME280;5526;42.070;24.752;2022-10-16T01:40:09;99659.31;;;11.00;86.31
10948;BME280;5526;42.070;24.752;2022-10-16T01:42:42;99733.22;;;11.43;86.51
10948;BME280;5526;42.070;24.752;2022-10-16T01:45:14;99707.34;;;11.24;86.89
10948;BME280;5526;42.070;24.752;2022-10-16T01:47:46;99662.09;;;10.94;86.87
10948;BME280;5526;42.070;24.752;2022-10-16T01:50:15;99680.69;;;11.04;87.35
10948;BME280;5526;42.070;24.752;2022-10-16T01:52:47;99722.25;;;11.18;88.72
10948;BME280;5526;42.070;24.752;2022-10-16T01:55:21;99744.56;;;11.27;89.71
10948;BME280;5526;42.070;24.752;2022-10-16T01:57:52;99707.59;;;11.06;89.91
10948;BME280;5526;42.070;24.752;2022-10-16T02:00:22;99689.28;;;10.99;90.01
10948;BME280;5526;42.070;24.752;2022-10-16T02:02:53;99686.09;;;10.97;89.96
10948;BME280;5526;42.070;24.752;2022-10-16T02:05:25;99717.72;;;11.14;90.41
10948;BME280;5526;42.070;24.752;2022-10-16T02:07:54;99706.94;;;10.99;91.50
10948;BME280;5526;42.070;24.752;2022-10-16T02:10:23;99645.22;;;10.62;91.33
10948;BME280;5526;42.070;24.752;2022-10-16T02:12:57;99675.91;;;10.84;90.69
10948;BME280;5526;42.070;24.752;2022-10-16T02:15:26;99730.56;;;11.10;90.34
10948;BME280;5526;42.070;24.752;2022-10-16T02:17:54;99655.34;;;10.53;90.93
10948;BME280;5526;42.070;24.752;2022-10-16T02:20:25;99699.09;;;10.71;90.88
10948;BME280;5526;42.070;24.752;2022-10-16T02:22:56;99664.53;;;10.51;91.28
10948;BME280;5526;42.070;24.752;2022-10-16T02:25:30;99657.41;;;10.51;90.92
10948;BME280;5526;42.070;24.752;2022-10-16T02:28:02;99752.38;;;11.06;91.29
10948;BME280;5526;42.070;24.752;2022-10-16T02:30:34;99687.97;;;10.69;91.26
10948;BME280;5526;42.070;24.752;2022-10-16T02:33:07;99748.47;;;11.08;91.65
10948;BME280;5526;42.070;24.752;2022-10-16T02:35:36;99716.50;;;10.88;91.63
10948;BME280;5526;42.070;24.752;2022-10-16T02:38:04;99664.13;;;10.59;92.28
10948;BME280;5526;42.070;24.752;2022-10-16T02:40:33;99715.53;;;10.94;92.33
10948;BME280;5526;42.070;24.752;2022-10-16T02:43:04;99693.91;;;10.76;92.58
10948;BME280;5526;42.070;24.752;2022-10-16T02:45:34;99666.66;;;10.54;93.27
10948;BME280;5526;42.070;24.752;2022-10-16T02:48:02;99739.81;;;10.96;93.61
10948;BME280;5526;42.070;24.752;2022-10-16T02:50:29;99766.50;;;11.16;94.15
10948;BME280;5526;42.070;24.752;2022-10-16T02:52:57;99700.28;;;10.80;94.42
10948;BME280;5526;42.070;24.752;2022-10-16T02:55:25;99728.09;;;11.04;94.51
10948;BME280;5526;42.070;24.752;2022-10-16T02:57:53;99734.63;;;11.01;94.63
10948;BME280;5526;42.070;24.752;2022-10-16T03:00:22;99710.81;;;10.80;94.86
10948;BME280;5526;42.070;24.752;2022-10-16T03:02:50;99777.34;;;11.20;95.40
10948;BME280;5526;42.070;24.752;2022-10-16T03:05:17;99683.75;;;10.68;95.31
10948;BME280;5526;42.070;24.752;2022-10-16T03:07:45;99692.72;;;10.83;95.43
10948;BME280;5526;42.070;24.752;2022-10-16T03:10:13;99759.88;;;11.30;95.65
10948;BME280;5526;42.070;24.752;2022-10-16T03:12:40;99757.16;;;11.25;95.95
10948;BME280;5526;42.070;24.752;2022-10-16T03:15:08;99734.72;;;11.06;95.93
10948;BME280;5526;42.070;24.752;2022-10-16T03:17:37;99760.34;;;11.11;96.66
10948;BME280;5526;42.070;24.752;2022-10-16T03:20:06;99782.69;;;11.25;96.57
10948;BME280;5526;42.070;24.752;2022-10-16T03:22:33;99720.38;;;10.69;97.16
10948;BME280;5526;42.070;24.752;2022-10-16T03:25:01;99773.56;;;10.83;98.85
10948;BME280;5526;42.070;24.752;2022-10-16T03:27:29;99727.78;;;10.44;99.68
10948;BME280;5526;42.070;24.752;2022-10-16T03:29:56;99710.50;;;10.20;100.00
10948;BME280;5526;42.070;24.752;2022-10-16T03:32:24;99790.94;;;10.84;99.52
10948;BME280;5526;42.070;24.752;2022-10-16T03:34:53;99701.69;;;10.26;98.85
10948;BME280;5526;42.070;24.752;2022-10-16T03:37:22;99731.66;;;10.53;98.43
10948;BME280;5526;42.070;24.752;2022-10-16T03:39:50;99720.09;;;10.54;98.28
10948;BME280;5526;42.070;24.752;2022-10-16T03:42:18;99789.19;;;10.89;98.31
10948;BME280;5526;42.070;24.752;2022-10-16T03:44:45;99736.31;;;10.63;98.20
10948;BME280;5526;42.070;24.752;2022-10-16T03:47:13;99759.50;;;10.77;97.90
10948;BME280;5526;42.070;24.752;2022-10-16T03:49:41;99719.78;;;10.51;97.99
10948;BME280;5526;42.070;24.752;2022-10-16T03:52:10;99794.31;;;10.96;97.75
10948;BME280;5526;42.070;24.752;2022-10-16T03:54:37;99795.59;;;10.93;97.72
10948;BME280;5526;42.070;24.752;2022-10-16T03:57:05;99763.94;;;10.77;97.03
10948;BME280;5526;42.070;24.752;2022-10-16T03:59:32;99733.94;;;10.61;96.91
10948;BME280;5526;42.070;24.752;2022-10-16T04:02:00;99724.25;;;10.39;97.09
10948;BME280;5526;42.070;24.752;2022-10-16T04:04:28;99787.47;;;10.67;98.77
10948;BME280;5526;42.070;24.752;2022-10-16T04:06:56;99830.38;;;10.67;99.94
10948;BME280;5526;42.070;24.752;2022-10-16T04:09:25;99736.25;;;10.07;100.00
10948;BME280;5526;42.070;24.752;2022-10-16T04:11:53;99795.22;;;10.34;100.00
10948;BME280;5526;42.070;24.752;2022-10-16T04:14:20;99742.28;;;9.96;100.00
10948;BME280;5526;42.070;24.752;2022-10-16T04:16:48;99805.50;;;10.35;100.00
10948;BME280;5526;42.070;24.752;2022-10-16T04:19:16;99722.91;;;9.74;100.00
10948;BME280;5526;42.070;24.752;2022-10-16T04:21:44;99743.13;;;9.73;100.00
10948;BME280;5526;42.070;24.752;2022-10-16T04:24:12;99816.19;;;10.06;100.00
10948;BME280;5526;42.070;24.752;2022-10-16T04:26:41;99767.00;;;9.72;100.00
10948;BME280;5526;42.070;24.752;2022-10-16T04:29:08;99761.88;;;9.54;100.00
10948;BME280;5526;42.070;24.752;2022-10-16T04:31:36;99823.72;;;10.02;100.00
10948;BME280;5526;42.070;24.752;2022-10-16T04:34:03;99832.19;;;10.16;100.00
10948;BME280;5526;42.070;24.752;2022-10-16T04:36:31;99784.25;;;9.91;100.00
10948;BME280;5526;42.070;24.752;2022-10-16T04:38:58;99785.75;;;9.75;100.00
10948;BME280;5526;42.070;24.752;2022-10-16T04:41:26;99777.06;;;9.86;100.00
10948;BME280;5526;42.070;24.752;2022-10-16T04:43:55;99825.66;;;10.18;100.00
10948;BME280;5526;42.070;24.752;2022-10-16T04:46:23;99803.63;;;10.08;100.00
10948;BME280;5526;42.070;24.752;2022-10-16T04:48:51;99743.25;;;9.67;100.00
10948;BME280;5526;42.070;24.752;2022-10-16T04:51:20;99754.53;;;9.79;100.00
10948;BME280;5526;42.070;24.752;2022-10-16T04:53:47;99728.84;;;9.58;100.00
10948;BME280;5526;42.070;24.752;2022-10-16T04:56:15;99789.75;;;9.78;100.00
10948;BME280;5526;42.070;24.752;2022-10-16T04:58:42;99782.75;;;9.72;100.00
10948;BME280;5526;42.070;24.752;2022-10-16T05:01:11;99810.66;;;9.96;100.00
10948;BME280;5526;42.070;24.752;2022-10-16T05:03:39;99794.91;;;9.73;100.00
10948;BME280;5526;42.070;24.752;2022-10-16T05:06:07;99766.66;;;9.57;100.00
10948;BME280;5526;42.070;24.752;2022-10-16T05:08:34;99800.50;;;9.76;100.00
10948;BME280;5526;42.070;24.752;2022-10-16T05:11:02;99772.38;;;9.54;100.00
10948;BME280;5526;42.070;24.752;2022-10-16T05:13:30;99804.25;;;9.57;100.00
10948;BME280;5526;42.070;24.752;2022-10-16T05:15:57;99827.59;;;9.77;100.00
10948;BME280;5526;42.070;24.752;2022-10-16T05:18:26;99802.66;;;9.79;100.00
10948;BME280;5526;42.070;24.752;2022-10-16T05:20:54;99767.78;;;9.61;100.00
10948;BME280;5526;42.070;24.752;2022-10-16T05:23:22;99858.25;;;10.06;100.00
10948;BME280;5526;42.070;24.752;2022-10-16T05:25:53;99859.72;;;10.02;100.00
10948;BME280;5526;42.070;24.752;2022-10-16T05:28:24;99779.34;;;9.60;100.00
10948;BME280;5526;42.070;24.752;2022-10-16T05:30:51;99875.88;;;10.17;100.00
10948;BME280;5526;42.070;24.752;2022-10-16T05:33:20;99803.69;;;9.78;100.00
10948;BME280;5526;42.070;24.752;2022-10-16T05:35:49;99797.84;;;9.88;100.00
10948;BME280;5526;42.070;24.752;2022-10-16T05:38:17;99789.63;;;9.84;100.00
10948;BME280;5526;42.070;24.752;2022-10-16T05:40:51;99883.41;;;10.36;100.00
10948;BME280;5526;42.070;24.752;2022-10-16T05:43:19;99832.41;;;10.26;100.00
10948;BME280;5526;42.070;24.752;2022-10-16T05:45:54;99799.00;;;10.26;100.00
10948;BME280;5526;42.070;24.752;2022-10-16T05:48:22;99899.66;;;10.96;100.00
10948;BME280;5526;42.070;24.752;2022-10-16T05:50:58;99879.78;;;10.88;100.00
10948;BME280;5526;42.070;24.752;2022-10-16T05:53:27;99805.13;;;10.55;100.00
10948;BME280;5526;42.070;24.752;2022-10-16T05:55:55;99882.56;;;11.10;100.00
10948;BME280;5526;42.070;24.752;2022-10-16T05:58:23;99841.25;;;10.59;100.00
10948;BME280;5526;42.070;24.752;2022-10-16T06:00:55;99832.22;;;10.67;100.00
10948;BME280;5526;42.070;24.752;2022-10-16T06:03:23;99835.84;;;10.77;100.00
10948;BME280;5526;42.070;24.752;2022-10-16T06:05:51;99906.66;;;11.02;100.00
10948;BME280;5526;42.070;24.752;2022-10-16T06:08:22;99921.19;;;11.04;100.00
10948;BME280;5526;42.070;24.752;2022-10-16T06:11:00;99922.69;;;11.00;100.00
10948;BME280;5526;42.070;24.752;2022-10-16T06:13:28;99861.81;;;10.85;100.00
10948;BME280;5526;42.070;24.752;2022-10-16T06:15:57;99847.44;;;11.04;100.00
10948;BME280;5526;42.070;24.752;2022-10-16T06:18:25;99853.44;;;11.16;99.98
10948;BME280;5526;42.070;24.752;2022-10-16T06:20:53;99843.97;;;11.32;98.47
10948;BME280;5526;42.070;24.752;2022-10-16T06:23:23;99828.16;;;11.15;98.48
10948;BME280;5526;42.070;24.752;2022-10-16T06:25:51;99913.63;;;11.80;98.17
10948;BME280;5526;42.070;24.752;2022-10-16T06:28:18;99867.63;;;11.60;97.92
10948;BME280;5526;42.070;24.752;2022-10-16T06:30:46;99893.03;;;11.94;96.91
10948;BME280;5526;42.070;24.752;2022-10-16T06:33:13;99891.75;;;11.96;97.21
10948;BME280;5526;42.070;24.752;2022-10-16T06:35:41;99935.22;;;11.77;97.83
10948;BME280;5526;42.070;24.752;2022-10-16T06:38:09;99906.34;;;11.71;99.06
10948;BME280;5526;42.070;24.752;2022-10-16T06:40:38;99888.22;;;11.91;97.87
10948;BME280;5526;42.070;24.752;2022-10-16T06:43:05;99852.03;;;11.70;96.38
10948;BME280;5526;42.070;24.752;2022-10-16T06:45:33;99860.34;;;11.50;98.34
10948;BME280;5526;42.070;24.752;2022-10-16T06:48:00;99921.16;;;12.05;96.59
10948;BME280;5526;42.070;24.752;2022-10-16T06:50:28;99882.00;;;11.80;96.69
10948;BME280;5526;42.070;24.752;2022-10-16T06:52:55;99929.28;;;12.53;95.37
10948;BME280;5526;42.070;24.752;2022-10-16T06:55:24;99954.28;;;12.83;93.31
10948;BME280;5526;42.070;24.752;2022-10-16T06:57:53;99905.53;;;12.74;92.31
10948;BME280;5526;42.070;24.752;2022-10-16T07:00:20;99903.59;;;13.08;91.22
10948;BME280;5526;42.070;24.752;2022-10-16T07:02:48;99874.91;;;12.35;90.38
10948;BME280;5526;42.070;24.752;2022-10-16T07:05:16;99879.59;;;12.71;92.02
10948;BME280;5526;42.070;24.752;2022-10-16T07:07:44;99951.84;;;13.20;89.90
10948;BME280;5526;42.070;24.752;2022-10-16T07:10:11;99890.56;;;12.80;91.09
10948;BME280;5526;42.070;24.752;2022-10-16T07:12:39;99961.28;;;13.38;89.18
10948;BME280;5526;42.070;24.752;2022-10-16T07:15:09;99877.97;;;12.87;90.20
10948;BME280;5526;42.070;24.752;2022-10-16T07:17:38;99928.41;;;13.29;89.87
10948;BME280;5526;42.070;24.752;2022-10-16T07:20:06;99908.75;;;13.20;89.32
10948;BME280;5526;42.070;24.752;2022-10-16T07:22:34;99927.34;;;13.51;87.51
10948;BME280;5526;42.070;24.752;2022-10-16T07:25:02;99885.91;;;13.35;86.57
10948;BME280;5526;42.070;24.752;2022-10-16T07:27:30;99888.22;;;13.53;85.93
10948;BME280;5526;42.070;24.752;2022-10-16T07:29:58;99923.94;;;13.56;84.00
10948;BME280;5526;42.070;24.752;2022-10-16T07:32:27;99958.31;;;13.82;85.71
10948;BME280;5526;42.070;24.752;2022-10-16T07:34:55;99888.28;;;13.63;84.10
10948;BME280;5526;42.070;24.752;2022-10-16T07:37:22;99905.50;;;13.92;83.72
10948;BME280;5526;42.070;24.752;2022-10-16T07:39:50;99933.34;;;14.31;82.29
10948;BME280;5526;42.070;24.752;2022-10-16T07:42:18;99877.69;;;13.90;81.42
10948;BME280;5526;42.070;24.752;2022-10-16T07:44:45;99946.50;;;14.58;81.32
10948;BME280;5526;42.070;24.752;2022-10-16T07:47:13;99910.66;;;14.45;80.89
10948;BME280;5526;42.070;24.752;2022-10-16T07:49:42;99945.78;;;14.72;80.86
10948;BME280;5526;42.070;24.752;2022-10-16T07:52:10;99872.06;;;14.59;79.37
10948;BME280;5526;42.070;24.752;2022-10-16T07:54:37;99951.25;;;15.02;78.71
10948;BME280;5526;42.070;24.752;2022-10-16T07:57:05;99901.88;;;14.86;78.17
10948;BME280;5526;42.070;24.752;2022-10-16T07:59:32;99884.72;;;15.14;76.15
10948;BME280;5526;42.070;24.752;2022-10-16T08:02:00;99942.69;;;15.47;75.51
10948;BME280;5526;42.070;24.752;2022-10-16T08:04:28;99951.50;;;15.67;75.20
10948;BME280;5526;42.070;24.752;2022-10-16T08:06:57;99914.03;;;15.54;74.77
10948;BME280;5526;42.070;24.752;2022-10-16T08:09:25;99919.91;;;15.86;72.88
10948;BME280;5526;42.070;24.752;2022-10-16T08:11:53;99951.78;;;16.01;72.45
10948;BME280;5526;42.070;24.752;2022-10-16T08:14:21;99955.75;;;16.58;71.06
10948;BME280;5526;42.070;24.752;2022-10-16T08:16:48;99913.78;;;16.50;69.43
10948;BME280;5526;42.070;24.752;2022-10-16T08:19:16;99909.22;;;16.71;68.47
10948;BME280;5526;42.070;24.752;2022-10-16T08:21:47;99938.63;;;16.94;66.85
10948;BME280;5526;42.070;24.752;2022-10-16T08:24:16;99926.13;;;16.90;66.94
10948;BME280;5526;42.070;24.752;2022-10-16T08:26:44;99867.97;;;16.78;66.29
10948;BME280;5526;42.070;24.752;2022-10-16T08:29:13;99953.88;;;17.43;65.40
10948;BME280;5526;42.070;24.752;2022-10-16T08:31:40;99910.47;;;17.47;64.67
10948;BME280;5526;42.070;24.752;2022-10-16T08:34:08;99903.00;;;17.49;63.61
10948;BME280;5526;42.070;24.752;2022-10-16T08:36:35;99944.44;;;17.65;63.50
10948;BME280;5526;42.070;24.752;2022-10-16T08:39:03;99979.59;;;18.01;62.25
10948;BME280;5526;42.070;24.752;2022-10-16T08:42:11;99955.28;;;17.74;59.26
10948;BME280;5526;42.070;24.752;2022-10-16T08:47:44;99912.41;;;17.32;61.61
10948;BME280;5526;42.070;24.752;2022-10-16T08:50:22;99965.78;;;17.99;60.41
10948;BME280;5526;42.070;24.752;2022-10-16T08:52:51;99906.38;;;17.65;60.17
10948;BME280;5526;42.070;24.752;2022-10-16T08:55:41;99905.75;;;18.06;57.49
10948;BME280;5526;42.070;24.752;2022-10-16T08:58:13;99898.97;;;18.52;56.90
10948;BME280;5526;42.070;24.752;2022-10-16T09:00:44;99954.91;;;19.28;55.21
10948;BME280;5526;42.070;24.752;2022-10-16T09:03:20;99891.66;;;18.86;53.86
10948;BME280;5526;42.070;24.752;2022-10-16T09:06:17;99945.44;;;18.93;53.60
10948;BME280;5526;42.070;24.752;2022-10-16T09:09:02;99965.38;;;19.43;52.19
10948;BME280;5526;42.070;24.752;2022-10-16T09:11:43;99916.94;;;19.31;52.65
10948;BME280;5526;42.070;24.752;2022-10-16T09:14:27;99931.56;;;19.15;51.46
10948;BME280;5526;42.070;24.752;2022-10-16T09:17:12;99908.06;;;19.17;51.47
10948;BME280;5526;42.070;24.752;2022-10-16T09:19:48;99899.28;;;19.35;51.20
10948;BME280;5526;42.070;24.752;2022-10-16T09:22:20;99972.09;;;19.96;50.67
10948;BME280;5526;42.070;24.752;2022-10-16T09:24:48;99950.94;;;19.81;49.23
10948;BME280;5526;42.070;24.752;2022-10-16T09:27:16;99971.75;;;19.84;50.43
10948;BME280;5526;42.070;24.752;2022-10-16T09:29:45;99930.78;;;19.14;50.75
10948;BME280;5526;42.070;24.752;2022-10-16T09:32:17;99908.44;;;19.66;51.53
10948;BME280;5526;42.070;24.752;2022-10-16T09:34:48;99913.34;;;19.77;49.29
10948;BME280;5526;42.070;24.752;2022-10-16T09:37:19;99912.84;;;20.07;49.16
10948;BME280;5526;42.070;24.752;2022-10-16T09:39:50;99898.38;;;19.95;47.64
10948;BME280;5526;42.070;24.752;2022-10-16T09:42:18;99865.56;;;19.76;46.06
10948;BME280;5526;42.070;24.752;2022-10-16T09:44:50;99951.00;;;20.13;44.74
10948;BME280;5526;42.070;24.752;2022-10-16T09:47:21;99883.59;;;19.84;45.42
10948;BME280;5526;42.070;24.752;2022-10-16T09:49:54;99941.94;;;20.14;43.86
10948;BME280;5526;42.070;24.752;2022-10-16T09:52:23;99883.91;;;19.96;44.44
10948;BME280;5526;42.070;24.752;2022-10-16T09:54:52;99905.84;;;20.43;44.37
10948;BME280;5526;42.070;24.752;2022-10-16T09:57:21;99867.00;;;20.46;43.74
10948;BME280;5526;42.070;24.752;2022-10-16T09:59:51;99919.72;;;20.86;43.15
10948;BME280;5526;42.070;24.752;2022-10-16T10:02:26;99892.94;;;20.45;42.57
10948;BME280;5526;42.070;24.752;2022-10-16T10:04:55;99915.94;;;20.60;43.10
10948;BME280;5526;42.070;24.752;2022-10-16T10:07:26;99867.81;;;19.69;43.78
10948;BME280;5526;42.070;24.752;2022-10-16T10:09:55;99872.00;;;19.75;44.59
10948;BME280;5526;42.070;24.752;2022-10-16T10:12:24;99845.09;;;19.85;44.36
10948;BME280;5526;42.070;24.752;2022-10-16T10:14:55;99889.38;;;20.36;42.86
10948;BME280;5526;42.070;24.752;2022-10-16T10:17:25;99858.00;;;20.42;42.96
10948;BME280;5526;42.070;24.752;2022-10-16T10:19:55;99892.56;;;20.79;41.71
10948;BME280;5526;42.070;24.752;2022-10-16T10:22:31;99863.53;;;20.86;41.57
10948;BME280;5526;42.070;24.752;2022-10-16T10:25:15;99888.88;;;21.16;40.12
10948;BME280;5526;42.070;24.752;2022-10-16T10:27:58;99858.06;;;21.05;40.68
10948;BME280;5526;42.070;24.752;2022-10-16T10:30:37;99844.81;;;21.35;40.61
10948;BME280;5526;42.070;24.752;2022-10-16T10:33:15;99850.03;;;21.40;40.42
10948;BME280;5526;42.070;24.752;2022-10-16T10:35:53;99852.06;;;21.57;38.82
10948;BME280;5526;42.070;24.752;2022-10-16T10:38:37;99875.00;;;21.27;39.30
10948;BME280;5526;42.070;24.752;2022-10-16T10:41:20;99816.56;;;20.80;38.10
10948;BME280;5526;42.070;24.752;2022-10-16T10:43:57;99836.47;;;20.88;38.27
10948;BME280;5526;42.070;24.752;2022-10-16T10:46:34;99863.81;;;20.84;39.19
10948;BME280;5526;42.070;24.752;2022-10-16T10:49:24;99870.69;;;21.04;37.41
10948;BME280;5526;42.070;24.752;2022-10-16T10:52:02;99887.91;;;21.12;38.16
10948;BME280;5526;42.070;24.752;2022-10-16T10:54:41;99817.34;;;20.80;38.63
10948;BME280;5526;42.070;24.752;2022-10-16T10:57:21;99866.53;;;21.34;37.29
10948;BME280;5526;42.070;24.752;2022-10-16T11:00:06;99858.88;;;21.41;36.71
10948;BME280;5526;42.070;24.752;2022-10-16T11:02:48;99818.75;;;21.49;37.04
10948;BME280;5526;42.070;24.752;2022-10-16T11:05:42;99836.63;;;21.18;36.70
10948;BME280;5526;42.070;24.752;2022-10-16T11:08:14;99826.66;;;21.32;37.76
10948;BME280;5526;42.070;24.752;2022-10-16T11:10:51;99875.56;;;21.60;36.83
10948;BME280;5526;42.070;24.752;2022-10-16T11:13:28;99835.50;;;21.55;35.57
10948;BME280;5526;42.070;24.752;2022-10-16T11:16:00;99830.16;;;21.55;36.23
10948;BME280;5526;42.070;24.752;2022-10-16T11:18:37;99863.00;;;21.82;36.04
10948;BME280;5526;42.070;24.752;2022-10-16T11:21:11;99848.13;;;21.76;36.14
10948;BME280;5526;42.070;24.752;2022-10-16T11:23:44;99805.72;;;21.34;36.29
10948;BME280;5526;42.070;24.752;2022-10-16T11:26:18;99855.69;;;21.74;36.19
10948;BME280;5526;42.070;24.752;2022-10-16T11:28:49;99806.16;;;21.72;36.09
10948;BME280;5526;42.070;24.752;2022-10-16T11:31:24;99822.03;;;21.46;36.22
10948;BME280;5526;42.070;24.752;2022-10-16T11:34:01;99820.72;;;21.35;36.26
10948;BME280;5526;42.070;24.752;2022-10-16T11:36:35;99848.31;;;21.22;36.76
10948;BME280;5526;42.070;24.752;2022-10-16T11:39:16;99860.84;;;21.71;35.40
10948;BME280;5526;42.070;24.752;2022-10-16T11:41:48;99786.50;;;21.76;36.00
10948;BME280;5526;42.070;24.752;2022-10-16T11:44:26;99793.44;;;21.77;34.67
10948;BME280;5526;42.070;24.752;2022-10-16T11:47:06;99855.78;;;21.91;35.12
10948;BME280;5526;42.070;24.752;2022-10-16T11:49:39;99810.81;;;21.22;35.23
10948;BME280;5526;42.070;24.752;2022-10-16T11:52:14;99797.09;;;21.59;35.11
10948;BME280;5526;42.070;24.752;2022-10-16T11:54:49;99811.19;;;21.95;35.42
10948;BME280;5526;42.070;24.752;2022-10-16T11:57:21;99819.53;;;21.94;34.37
10948;BME280;5526;42.070;24.752;2022-10-16T11:59:54;99836.91;;;22.27;34.15
10948;BME280;5526;42.070;24.752;2022-10-16T12:02:32;99798.97;;;22.11;34.26
10948;BME280;5526;42.070;24.752;2022-10-16T12:05:13;99835.22;;;22.09;33.41
10948;BME280;5526;42.070;24.752;2022-10-16T12:07:50;99849.03;;;22.24;34.00
10948;BME280;5526;42.070;24.752;2022-10-16T12:10:22;99836.72;;;22.62;34.54
10948;BME280;5526;42.070;24.752;2022-10-16T12:12:50;99820.47;;;22.59;35.06
10948;BME280;5526;42.070;24.752;2022-10-16T12:15:21;99790.50;;;22.65;34.31
10948;BME280;5526;42.070;24.752;2022-10-16T12:17:50;99798.59;;;22.43;34.16
10948;BME280;5526;42.070;24.752;2022-10-16T12:20:29;99799.72;;;22.42;32.53
10948;BME280;5526;42.070;24.752;2022-10-16T12:23:00;99797.69;;;22.09;34.16
10948;BME280;5526;42.070;24.752;2022-10-16T12:25:31;99819.00;;;22.44;33.58
10948;BME280;5526;42.070;24.752;2022-10-16T12:28:04;99807.75;;;22.42;33.84
10948;BME280;5526;42.070;24.752;2022-10-16T12:30:34;99860.66;;;22.98;33.36
10948;BME280;5526;42.070;24.752;2022-10-16T12:33:03;99815.81;;;22.42;33.52
10948;BME280;5526;42.070;24.752;2022-10-16T12:35:35;99847.47;;;22.62;32.51
10948;BME280;5526;42.070;24.752;2022-10-16T12:38:17;99799.97;;;22.32;32.08
10948;BME280;5526;42.070;24.752;2022-10-16T12:40:46;99837.88;;;22.31;33.29
10948;BME280;5526;42.070;24.752;2022-10-16T12:43:36;99809.84;;;22.06;32.41
10948;BME280;5526;42.070;24.752;2022-10-16T12:46:20;99835.94;;;22.53;32.75
10948;BME280;5526;42.070;24.752;2022-10-16T12:48:48;99802.34;;;22.34;33.18
10948;BME280;5526;42.070;24.752;2022-10-16T12:51:33;99824.28;;;22.66;33.24
10948;BME280;5526;42.070;24.752;2022-10-16T12:54:02;99870.44;;;23.02;33.25
10948;BME280;5526;42.070;24.752;2022-10-16T12:56:38;99828.75;;;22.96;32.25
10948;BME280;5526;42.070;24.752;2022-10-16T12:59:16;99792.25;;;22.70;32.55
10948;BME280;5526;42.070;24.752;2022-10-16T13:02:06;99843.44;;;22.99;32.33
10948;BME280;5526;42.070;24.752;2022-10-16T13:04:48;99870.81;;;23.26;32.26
10948;BME280;5526;42.070;24.752;2022-10-16T13:07:41;99841.72;;;23.03;32.48
10948;BME280;5526;42.070;24.752;2022-10-16T13:10:19;99854.41;;;23.28;32.66
10948;BME280;5526;42.070;24.752;2022-10-16T13:13:06;99816.44;;;22.95;33.06
10948;BME280;5526;42.070;24.752;2022-10-16T13:15:59;99859.88;;;23.14;32.11
10948;BME280;5526;42.070;24.752;2022-10-16T13:18:42;99852.88;;;22.79;32.65
10948;BME280;5526;42.070;24.752;2022-10-16T13:21:21;99829.22;;;22.42;33.44
10948;BME280;5526;42.070;24.752;2022-10-16T13:23:59;99833.94;;;22.76;32.92
10948;BME280;5526;42.070;24.752;2022-10-16T13:26:36;99846.69;;;22.70;32.80